sensor_id;sensor_type;location;lat;lon;timestamp;P1;durP1;ratioP1;P2;durP2;ratioP2
71238;SDS011;61342;51.442;7.370;2023-04-03T00:00:04;7.60;;;6.23;;
71238;SDS011;61342;51.442;7.370;2023-04-03T00:01:05;7.85;;;6.20;;
71238;SDS011;61342;51.442;7.370;2023-04-03T00:02:05;8.07;;;6.27;;
71238;SDS011;61342;51.442;7.370;2023-04-03T00:03:06;8.13;;;6.07;;
71238;SDS011;61342;51.442;7.370;2023-04-03T00:04:06;9.10;;;6.33;;
71238;SDS011;61342;51.442;7.370;2023-04-03T00:05:07;8.47;;;6.53;;
71238;SDS011;61342;51.442;7.370;2023-04-03T00:06:08;9.67;;;6.40;;
71238;SDS011;61342;51.442;7.370;2023-04-03T00:07:10;7.97;;;6.82;;
71238;SDS011;61342;51.442;7.370;2023-04-03T00:08:12;7.85;;;6.80;;
71238;SDS011;61342;51.442;7.370;2023-04-03T00:09:13;8.03;;;7.10;;
71238;SDS011;61342;51.442;7.370;2023-04-03T00:10:13;9.10;;;6.40;;
71238;SDS011;61342;51.442;7.370;2023-04-03T00:11:15;8.47;;;6.50;;
71238;SDS011;61342;51.442;7.370;2023-04-03T00:12:16;11.90;;;7.30;;
71238;SDS011;61342;51.442;7.370;2023-04-03T00:13:16;8.27;;;7.20;;
71238;SDS011;61342;51.442;7.370;2023-04-03T00:14:17;9.57;;;7.15;;
71238;SDS011;61342;51.442;7.370;2023-04-03T00:15:18;11.40;;;7.33;;
71238;SDS011;61342;51.442;7.370;2023-04-03T00:16:18;8.17;;;6.90;;
71238;SDS011;61342;51.442;7.370;2023-04-03T00:17:18;7.80;;;6.90;;
71238;SDS011;61342;51.442;7.370;2023-04-03T00:18:19;9.30;;;6.90;;
71238;SDS011;61342;51.442;7.370;2023-04-03T00:19:19;9.83;;;6.90;;
71238;SDS011;61342;51.442;7.370;2023-04-03T00:20:20;11.43;;;7.93;;
71238;SDS011;61342;51.442;7.370;2023-04-03T00:21:20;8.57;;;7.07;;
71238;SDS011;61342;51.442;7.370;2023-04-03T00:22:21;10.63;;;7.23;;
71238;SDS011;61342;51.442;7.370;2023-04-03T00:23:21;7.30;;;6.40;;
71238;SDS011;61342;51.442;7.370;2023-04-03T00:24:23;9.98;;;7.45;;
71238;SDS011;61342;51.442;7.370;2023-04-03T00:25:24;8.60;;;7.20;;
71238;SDS011;61342;51.442;7.370;2023-04-03T00:26:24;7.97;;;6.87;;
71238;SDS011;61342;51.442;7.370;2023-04-03T00:27:25;9.53;;;7.37;;
71238;SDS011;61342;51.442;7.370;2023-04-03T00:28:25;9.43;;;7.43;;
71238;SDS011;61342;51.442;7.370;2023-04-03T00:29:26;9.83;;;7.60;;
71238;SDS011;61342;51.442;7.370;2023-04-03T00:30:27;10.03;;;7.83;;
71238;SDS011;61342;51.442;7.370;2023-04-03T00:31:27;9.10;;;7.57;;
71238;SDS011;61342;51.442;7.370;2023-04-03T00:32:27;10.87;;;8.10;;
71238;SDS011;61342;51.442;7.370;2023-04-03T00:33:28;8.90;;;7.20;;
71238;SDS011;61342;51.442;7.370;2023-04-03T00:34:28;13.30;;;8.20;;
71238;SDS011;61342;51.442;7.370;2023-04-03T00:35:28;9.70;;;7.53;;
71238;SDS011;61342;51.442;7.370;2023-04-03T00:36:29;10.73;;;7.97;;
71238;SDS011;61342;51.442;7.370;2023-04-03T00:37:30;12.67;;;8.17;;
71238;SDS011;61342;51.442;7.370;2023-04-03T00:38:31;11.40;;;7.60;;
71238;SDS011;61342;51.442;7.370;2023-04-03T00:39:31;10.87;;;8.47;;
71238;SDS011;61342;51.442;7.370;2023-04-03T00:40:35;10.83;;;7.67;;
71238;SDS011;61342;51.442;7.370;2023-04-03T00:41:37;9.85;;;7.88;;
71238;SDS011;61342;51.442;7.370;2023-04-03T00:42:37;9.80;;;7.90;;
71238;SDS011;61342;51.442;7.370;2023-04-03T00:43:40;9.18;;;7.18;;
71238;SDS011;61342;51.442;7.370;2023-04-03T00:45:42;10.03;;;8.07;;
71238;SDS011;61342;51.442;7.370;2023-04-03T00:46:44;12.88;;;8.00;;
71238;SDS011;61342;51.442;7.370;2023-04-03T00:47:45;9.77;;;8.43;;
71238;SDS011;61342;51.442;7.370;2023-04-03T00:48:46;11.27;;;8.60;;
71238;SDS011;61342;51.442;7.370;2023-04-03T00:49:48;10.82;;;7.88;;
71238;SDS011;61342;51.442;7.370;2023-04-03T00:50:49;9.85;;;8.32;;
71238;SDS011;61342;51.442;7.370;2023-04-03T00:51:51;12.07;;;7.72;;
71238;SDS011;61342;51.442;7.370;2023-04-03T00:52:52;13.73;;;8.60;;
71238;SDS011;61342;51.442;7.370;2023-04-03T00:53:55;11.90;;;8.02;;
71238;SDS011;61342;51.442;7.370;2023-04-03T00:55:00;11.50;;;8.82;;
71238;SDS011;61342;51.442;7.370;2023-04-03T00:56:05;12.98;;;8.27;;
71238;SDS011;61342;51.442;7.370;2023-04-03T00:57:09;10.32;;;8.23;;
71238;SDS011;61342;51.442;7.370;2023-04-03T00:58:11;13.75;;;8.95;;
71238;SDS011;61342;51.442;7.370;2023-04-03T00:59:13;10.20;;;8.13;;
71238;SDS011;61342;51.442;7.370;2023-04-03T01:00:17;10.95;;;8.23;;
71238;SDS011;61342;51.442;7.370;2023-04-03T01:01:21;13.90;;;8.65;;
71238;SDS011;61342;51.442;7.370;2023-04-03T01:02:23;11.13;;;8.18;;
71238;SDS011;61342;51.442;7.370;2023-04-03T01:03:24;10.70;;;8.37;;
71238;SDS011;61342;51.442;7.370;2023-04-03T01:04:29;11.13;;;8.10;;
71238;SDS011;61342;51.442;7.370;2023-04-03T01:05:34;10.40;;;9.00;;
71238;SDS011;61342;51.442;7.370;2023-04-03T01:06:36;11.43;;;8.27;;
71238;SDS011;61342;51.442;7.370;2023-04-03T01:07:37;10.38;;;8.25;;
71238;SDS011;61342;51.442;7.370;2023-04-03T01:08:38;11.32;;;8.77;;
71238;SDS011;61342;51.442;7.370;2023-04-03T01:09:39;11.90;;;8.70;;
71238;SDS011;61342;51.442;7.370;2023-04-03T01:10:40;12.85;;;8.80;;
71238;SDS011;61342;51.442;7.370;2023-04-03T01:11:40;12.30;;;8.50;;
71238;SDS011;61342;51.442;7.370;2023-04-03T01:12:41;9.77;;;8.33;;
71238;SDS011;61342;51.442;7.370;2023-04-03T01:13:44;10.60;;;8.52;;
71238;SDS011;61342;51.442;7.370;2023-04-03T01:14:45;9.67;;;8.43;;
71238;SDS011;61342;51.442;7.370;2023-04-03T01:15:48;11.02;;;8.57;;
71238;SDS011;61342;51.442;7.370;2023-04-03T01:16:53;10.03;;;8.23;;
71238;SDS011;61342;51.442;7.370;2023-04-03T01:17:55;11.75;;;9.00;;
71238;SDS011;61342;51.442;7.370;2023-04-03T01:18:57;10.68;;;8.73;;
71238;SDS011;61342;51.442;7.370;2023-04-03T01:22:33;10.82;;;7.65;;
71238;SDS011;61342;51.442;7.370;2023-04-03T01:25:23;9.88;;;7.10;;
71238;SDS011;61342;51.442;7.370;2023-04-03T01:26:23;9.35;;;6.70;;
71238;SDS011;61342;51.442;7.370;2023-04-03T01:27:25;12.07;;;7.32;;
71238;SDS011;61342;51.442;7.370;2023-04-03T01:28:27;10.17;;;6.93;;
71238;SDS011;61342;51.442;7.370;2023-04-03T01:29:32;8.73;;;6.03;;
71238;SDS011;61342;51.442;7.370;2023-04-03T01:30:34;7.43;;;6.40;;
71238;SDS011;61342;51.442;7.370;2023-04-03T01:31:48;9.23;;;6.10;;
71238;SDS011;61342;51.442;7.370;2023-04-03T01:32:51;7.97;;;6.45;;
71238;SDS011;61342;51.442;7.370;2023-04-03T01:33:52;8.73;;;6.73;;
71238;SDS011;61342;51.442;7.370;2023-04-03T01:34:53;9.37;;;6.93;;
71238;SDS011;61342;51.442;7.370;2023-04-03T01:35:53;8.10;;;6.83;;
71238;SDS011;61342;51.442;7.370;2023-04-03T01:36:54;7.83;;;6.67;;
71238;SDS011;61342;51.442;7.370;2023-04-03T01:37:54;8.50;;;6.50;;
71238;SDS011;61342;51.442;7.370;2023-04-03T01:38:55;6.27;;;5.67;;
71238;SDS011;61342;51.442;7.370;2023-04-03T01:39:56;6.63;;;6.03;;
71238;SDS011;61342;51.442;7.370;2023-04-03T01:40:57;6.80;;;5.93;;
71238;SDS011;61342;51.442;7.370;2023-04-03T01:41:57;9.60;;;6.13;;
71238;SDS011;61342;51.442;7.370;2023-04-03T01:42:59;8.90;;;6.60;;
71238;SDS011;61342;51.442;7.370;2023-04-03T01:43:59;9.60;;;6.23;;
71238;SDS011;61342;51.442;7.370;2023-04-03T01:45:00;9.27;;;6.17;;
71238;SDS011;61342;51.442;7.370;2023-04-03T01:46:00;7.63;;;5.47;;
71238;SDS011;61342;51.442;7.370;2023-04-03T01:47:00;7.23;;;5.60;;
71238;SDS011;61342;51.442;7.370;2023-04-03T01:48:01;8.27;;;5.70;;
71238;SDS011;61342;51.442;7.370;2023-04-03T01:49:01;6.37;;;5.00;;
71238;SDS011;61342;51.442;7.370;2023-04-03T01:50:02;6.27;;;4.80;;
71238;SDS011;61342;51.442;7.370;2023-04-03T01:51:02;7.63;;;5.00;;
71238;SDS011;61342;51.442;7.370;2023-04-03T01:52:03;6.10;;;5.00;;
71238;SDS011;61342;51.442;7.370;2023-04-03T01:53:03;7.50;;;5.00;;
71238;SDS011;61342;51.442;7.370;2023-04-03T01:54:03;6.00;;;4.70;;
71238;SDS011;61342;51.442;7.370;2023-04-03T01:55:04;6.17;;;4.80;;
71238;SDS011;61342;51.442;7.370;2023-04-03T01:56:05;10.63;;;5.43;;
71238;SDS011;61342;51.442;7.370;2023-04-03T01:57:05;7.37;;;5.10;;
71238;SDS011;61342;51.442;7.370;2023-04-03T01:58:06;8.10;;;4.80;;
71238;SDS011;61342;51.442;7.370;2023-04-03T01:59:06;7.57;;;5.03;;
71238;SDS011;61342;51.442;7.370;2023-04-03T02:00:06;6.10;;;4.83;;
71238;SDS011;61342;51.442;7.370;2023-04-03T02:01:07;7.40;;;4.70;;
71238;SDS011;61342;51.442;7.370;2023-04-03T02:02:08;5.90;;;4.30;;
71238;SDS011;61342;51.442;7.370;2023-04-03T02:03:08;5.63;;;4.30;;
71238;SDS011;61342;51.442;7.370;2023-04-03T02:04:09;7.00;;;4.20;;
71238;SDS011;61342;51.442;7.370;2023-04-03T02:05:09;8.43;;;4.37;;
71238;SDS011;61342;51.442;7.370;2023-04-03T02:06:19;5.03;;;4.17;;
71238;SDS011;61342;51.442;7.370;2023-04-03T02:07:19;6.28;;;4.07;;
71238;SDS011;61342;51.442;7.370;2023-04-03T02:08:19;6.47;;;3.90;;
71238;SDS011;61342;51.442;7.370;2023-04-03T02:09:20;5.50;;;4.10;;
71238;SDS011;61342;51.442;7.370;2023-04-03T02:10:20;7.20;;;3.73;;
71238;SDS011;61342;51.442;7.370;2023-04-03T02:11:20;4.97;;;3.73;;
71238;SDS011;61342;51.442;7.370;2023-04-03T02:12:21;7.07;;;3.93;;
71238;SDS011;61342;51.442;7.370;2023-04-03T02:13:21;6.23;;;3.80;;
71238;SDS011;61342;51.442;7.370;2023-04-03T02:14:21;6.67;;;4.03;;
71238;SDS011;61342;51.442;7.370;2023-04-03T02:15:23;6.20;;;3.40;;
71238;SDS011;61342;51.442;7.370;2023-04-03T02:16:23;7.33;;;3.80;;
71238;SDS011;61342;51.442;7.370;2023-04-03T02:17:24;9.17;;;4.00;;
71238;SDS011;61342;51.442;7.370;2023-04-03T02:18:24;4.50;;;3.30;;
71238;SDS011;61342;51.442;7.370;2023-04-03T02:19:25;5.73;;;3.50;;
71238;SDS011;61342;51.442;7.370;2023-04-03T02:20:25;7.20;;;3.67;;
71238;SDS011;61342;51.442;7.370;2023-04-03T02:21:26;6.27;;;3.37;;
71238;SDS011;61342;51.442;7.370;2023-04-03T02:22:26;5.03;;;3.50;;
71238;SDS011;61342;51.442;7.370;2023-04-03T02:23:26;6.53;;;3.53;;
71238;SDS011;61342;51.442;7.370;2023-04-03T02:24:27;3.87;;;3.10;;
71238;SDS011;61342;51.442;7.370;2023-04-03T02:25:27;4.33;;;3.07;;
71238;SDS011;61342;51.442;7.370;2023-04-03T02:26:28;6.73;;;3.33;;
71238;SDS011;61342;51.442;7.370;2023-04-03T02:27:28;4.50;;;3.30;;
71238;SDS011;61342;51.442;7.370;2023-04-03T02:28:28;6.83;;;3.30;;
71238;SDS011;61342;51.442;7.370;2023-04-03T02:29:29;5.47;;;3.00;;
71238;SDS011;61342;51.442;7.370;2023-04-03T02:30:29;5.37;;;3.30;;
71238;SDS011;61342;51.442;7.370;2023-04-03T02:31:30;6.40;;;3.30;;
71238;SDS011;61342;51.442;7.370;2023-04-03T02:32:30;8.57;;;3.53;;
71238;SDS011;61342;51.442;7.370;2023-04-03T02:33:31;5.37;;;3.17;;
71238;SDS011;61342;51.442;7.370;2023-04-03T02:34:32;5.60;;;3.10;;
71238;SDS011;61342;51.442;7.370;2023-04-03T02:35:32;5.43;;;3.00;;
71238;SDS011;61342;51.442;7.370;2023-04-03T02:36:32;4.67;;;2.97;;
71238;SDS011;61342;51.442;7.370;2023-04-03T02:37:33;7.77;;;3.50;;
71238;SDS011;61342;51.442;7.370;2023-04-03T02:38:33;6.73;;;3.50;;
71238;SDS011;61342;51.442;7.370;2023-04-03T02:39:35;8.73;;;3.50;;
71238;SDS011;61342;51.442;7.370;2023-04-03T02:40:35;7.10;;;3.67;;
71238;SDS011;61342;51.442;7.370;2023-04-03T02:41:35;5.47;;;3.53;;
71238;SDS011;61342;51.442;7.370;2023-04-03T02:42:36;6.77;;;3.50;;
71238;SDS011;61342;51.442;7.370;2023-04-03T02:43:38;7.65;;;3.50;;
71238;SDS011;61342;51.442;7.370;2023-04-03T02:44:39;8.37;;;3.70;;
71238;SDS011;61342;51.442;7.370;2023-04-03T02:45:39;6.27;;;3.30;;
71238;SDS011;61342;51.442;7.370;2023-04-03T02:46:40;6.53;;;3.77;;
71238;SDS011;61342;51.442;7.370;2023-04-03T02:47:40;7.17;;;3.20;;
71238;SDS011;61342;51.442;7.370;2023-04-03T02:48:41;5.70;;;2.67;;
71238;SDS011;61342;51.442;7.370;2023-04-03T02:49:41;4.30;;;2.63;;
71238;SDS011;61342;51.442;7.370;2023-04-03T02:50:44;4.35;;;2.78;;
71238;SDS011;61342;51.442;7.370;2023-04-03T02:51:44;5.27;;;3.20;;
71238;SDS011;61342;51.442;7.370;2023-04-03T02:52:45;6.13;;;2.70;;
71238;SDS011;61342;51.442;7.370;2023-04-03T02:53:46;7.10;;;2.93;;
71238;SDS011;61342;51.442;7.370;2023-04-03T02:54:46;8.63;;;2.93;;
71238;SDS011;61342;51.442;7.370;2023-04-03T02:55:47;5.83;;;3.13;;
71238;SDS011;61342;51.442;7.370;2023-04-03T02:56:47;3.43;;;2.80;;
71238;SDS011;61342;51.442;7.370;2023-04-03T02:57:48;4.70;;;2.77;;
71238;SDS011;61342;51.442;7.370;2023-04-03T02:58:48;5.40;;;2.97;;
71238;SDS011;61342;51.442;7.370;2023-04-03T02:59:48;4.33;;;2.60;;
71238;SDS011;61342;51.442;7.370;2023-04-03T03:00:49;6.67;;;2.83;;
71238;SDS011;61342;51.442;7.370;2023-04-03T03:01:49;5.67;;;2.40;;
71238;SDS011;61342;51.442;7.370;2023-04-03T03:02:50;7.33;;;2.97;;
71238;SDS011;61342;51.442;7.370;2023-04-03T03:03:50;5.90;;;2.77;;
71238;SDS011;61342;51.442;7.370;2023-04-03T03:04:50;5.57;;;2.70;;
71238;SDS011;61342;51.442;7.370;2023-04-03T03:06:00;5.50;;;2.47;;
71238;SDS011;61342;51.442;7.370;2023-04-03T03:07:03;4.00;;;2.50;;
71238;SDS011;61342;51.442;7.370;2023-04-03T03:08:03;4.67;;;2.20;;
71238;SDS011;61342;51.442;7.370;2023-04-03T03:09:04;3.43;;;2.50;;
71238;SDS011;61342;51.442;7.370;2023-04-03T03:10:05;5.72;;;2.60;;
71238;SDS011;61342;51.442;7.370;2023-04-03T03:11:06;7.20;;;2.60;;
71238;SDS011;61342;51.442;7.370;2023-04-03T03:12:07;3.17;;;2.37;;
71238;SDS011;61342;51.442;7.370;2023-04-03T03:13:07;4.50;;;2.57;;
71238;SDS011;61342;51.442;7.370;2023-04-03T03:14:07;6.43;;;2.80;;
71238;SDS011;61342;51.442;7.370;2023-04-03T03:15:08;6.00;;;2.60;;
71238;SDS011;61342;51.442;7.370;2023-04-03T03:16:08;4.97;;;2.60;;
71238;SDS011;61342;51.442;7.370;2023-04-03T03:17:09;5.40;;;2.20;;
71238;SDS011;61342;51.442;7.370;2023-04-03T03:18:09;5.50;;;2.70;;
71238;SDS011;61342;51.442;7.370;2023-04-03T03:19:10;4.00;;;2.30;;
71238;SDS011;61342;51.442;7.370;2023-04-03T03:20:10;4.97;;;2.70;;
71238;SDS011;61342;51.442;7.370;2023-04-03T03:21:12;5.65;;;2.80;;
71238;SDS011;61342;51.442;7.370;2023-04-03T03:22:12;4.93;;;2.23;;
71238;SDS011;61342;51.442;7.370;2023-04-03T03:23:13;3.90;;;2.30;;
71238;SDS011;61342;51.442;7.370;2023-04-03T03:24:13;6.13;;;2.40;;
71238;SDS011;61342;51.442;7.370;2023-04-03T03:25:15;6.63;;;2.65;;
71238;SDS011;61342;51.442;7.370;2023-04-03T03:26:16;3.67;;;2.40;;
71238;SDS011;61342;51.442;7.370;2023-04-03T03:27:16;4.50;;;2.30;;
71238;SDS011;61342;51.442;7.370;2023-04-03T03:28:16;5.43;;;2.67;;
71238;SDS011;61342;51.442;7.370;2023-04-03T03:29:17;7.67;;;2.30;;
71238;SDS011;61342;51.442;7.370;2023-04-03T03:30:17;6.10;;;2.23;;
71238;SDS011;61342;51.442;7.370;2023-04-03T03:31:17;7.50;;;2.80;;
71238;SDS011;61342;51.442;7.370;2023-04-03T03:32:18;5.43;;;2.57;;
71238;SDS011;61342;51.442;7.370;2023-04-03T03:33:18;4.20;;;2.60;;
71238;SDS011;61342;51.442;7.370;2023-04-03T03:34:19;6.50;;;2.80;;
71238;SDS011;61342;51.442;7.370;2023-04-03T03:35:19;6.87;;;3.00;;
71238;SDS011;61342;51.442;7.370;2023-04-03T03:36:20;4.90;;;2.30;;
71238;SDS011;61342;51.442;7.370;2023-04-03T03:37:20;6.63;;;3.10;;
71238;SDS011;61342;51.442;7.370;2023-04-03T03:38:21;4.53;;;2.60;;
71238;SDS011;61342;51.442;7.370;2023-04-03T03:39:22;5.82;;;2.70;;
71238;SDS011;61342;51.442;7.370;2023-04-03T03:40:23;7.93;;;3.03;;
71238;SDS011;61342;51.442;7.370;2023-04-03T03:41:23;3.63;;;2.50;;
71238;SDS011;61342;51.442;7.370;2023-04-03T03:42:23;6.00;;;2.70;;
71238;SDS011;61342;51.442;7.370;2023-04-03T03:43:24;5.23;;;2.60;;
71238;SDS011;61342;51.442;7.370;2023-04-03T03:44:24;6.00;;;2.33;;
71238;SDS011;61342;51.442;7.370;2023-04-03T03:45:25;6.73;;;3.00;;
71238;SDS011;61342;51.442;7.370;2023-04-03T03:46:34;6.10;;;2.67;;
71238;SDS011;61342;51.442;7.370;2023-04-03T03:47:35;7.37;;;3.17;;
71238;SDS011;61342;51.442;7.370;2023-04-03T03:48:35;6.40;;;2.87;;
71238;SDS011;61342;51.442;7.370;2023-04-03T03:49:35;4.80;;;2.40;;
71238;SDS011;61342;51.442;7.370;2023-04-03T03:50:36;4.77;;;2.70;;
71238;SDS011;61342;51.442;7.370;2023-04-03T03:51:36;4.47;;;2.53;;
71238;SDS011;61342;51.442;7.370;2023-04-03T03:52:37;5.30;;;2.60;;
71238;SDS011;61342;51.442;7.370;2023-04-03T03:53:38;6.47;;;2.42;;
71238;SDS011;61342;51.442;7.370;2023-04-03T03:54:39;4.37;;;2.50;;
71238;SDS011;61342;51.442;7.370;2023-04-03T03:55:39;7.50;;;2.70;;
71238;SDS011;61342;51.442;7.370;2023-04-03T03:56:40;7.93;;;2.80;;
71238;SDS011;61342;51.442;7.370;2023-04-03T03:57:41;7.17;;;2.80;;
71238;SDS011;61342;51.442;7.370;2023-04-03T03:58:41;4.60;;;2.80;;
71238;SDS011;61342;51.442;7.370;2023-04-03T03:59:41;7.00;;;2.57;;
71238;SDS011;61342;51.442;7.370;2023-04-03T04:00:44;6.75;;;2.55;;
71238;SDS011;61342;51.442;7.370;2023-04-03T04:01:44;4.40;;;2.93;;
71238;SDS011;61342;51.442;7.370;2023-04-03T04:02:45;5.10;;;2.50;;
71238;SDS011;61342;51.442;7.370;2023-04-03T04:03:45;5.17;;;3.00;;
71238;SDS011;61342;51.442;7.370;2023-04-03T04:04:46;5.10;;;2.60;;
71238;SDS011;61342;51.442;7.370;2023-04-03T04:05:46;4.97;;;2.40;;
71238;SDS011;61342;51.442;7.370;2023-04-03T04:06:47;4.80;;;2.80;;
71238;SDS011;61342;51.442;7.370;2023-04-03T04:07:47;5.50;;;2.70;;
71238;SDS011;61342;51.442;7.370;2023-04-03T04:08:48;5.73;;;2.67;;
71238;SDS011;61342;51.442;7.370;2023-04-03T04:09:48;5.83;;;2.60;;
71238;SDS011;61342;51.442;7.370;2023-04-03T04:10:49;5.13;;;2.27;;
71238;SDS011;61342;51.442;7.370;2023-04-03T04:11:49;4.83;;;2.70;;
71238;SDS011;61342;51.442;7.370;2023-04-03T04:12:49;6.87;;;2.70;;
71238;SDS011;61342;51.442;7.370;2023-04-03T04:13:51;6.13;;;2.30;;
71238;SDS011;61342;51.442;7.370;2023-04-03T04:14:51;4.80;;;2.97;;
71238;SDS011;61342;51.442;7.370;2023-04-03T04:15:51;5.53;;;3.20;;
71238;SDS011;61342;51.442;7.370;2023-04-03T04:16:52;5.23;;;2.83;;
71238;SDS011;61342;51.442;7.370;2023-04-03T04:17:52;6.43;;;3.00;;
71238;SDS011;61342;51.442;7.370;2023-04-03T04:18:53;4.63;;;2.50;;
71238;SDS011;61342;51.442;7.370;2023-04-03T04:19:53;5.73;;;2.93;;
71238;SDS011;61342;51.442;7.370;2023-04-03T04:20:54;8.17;;;2.87;;
71238;SDS011;61342;51.442;7.370;2023-04-03T04:21:54;4.70;;;2.50;;
71238;SDS011;61342;51.442;7.370;2023-04-03T04:22:54;3.30;;;2.23;;
71238;SDS011;61342;51.442;7.370;2023-04-03T04:23:55;4.53;;;2.27;;
71238;SDS011;61342;51.442;7.370;2023-04-03T04:24:55;4.53;;;2.37;;
71238;SDS011;61342;51.442;7.370;2023-04-03T04:25:56;6.50;;;2.63;;
71238;SDS011;61342;51.442;7.370;2023-04-03T04:26:56;7.13;;;3.07;;
71238;SDS011;61342;51.442;7.370;2023-04-03T04:27:57;3.33;;;2.40;;
71238;SDS011;61342;51.442;7.370;2023-04-03T04:28:57;5.60;;;2.60;;
71238;SDS011;61342;51.442;7.370;2023-04-03T04:29:57;4.90;;;2.30;;
71238;SDS011;61342;51.442;7.370;2023-04-03T04:30:58;4.90;;;3.03;;
71238;SDS011;61342;51.442;7.370;2023-04-03T04:31:58;5.00;;;2.50;;
71238;SDS011;61342;51.442;7.370;2023-04-03T04:32:58;5.23;;;2.63;;
71238;SDS011;61342;51.442;7.370;2023-04-03T04:33:59;5.90;;;3.17;;
71238;SDS011;61342;51.442;7.370;2023-04-03T04:35:00;5.27;;;2.73;;
71238;SDS011;61342;51.442;7.370;2023-04-03T04:36:00;6.00;;;2.70;;
71238;SDS011;61342;51.442;7.370;2023-04-03T04:37:01;9.87;;;2.90;;
71238;SDS011;61342;51.442;7.370;2023-04-03T04:38:01;5.23;;;2.57;;
71238;SDS011;61342;51.442;7.370;2023-04-03T04:39:02;8.03;;;2.73;;
71238;SDS011;61342;51.442;7.370;2023-04-03T04:40:02;5.93;;;2.37;;
71238;SDS011;61342;51.442;7.370;2023-04-03T04:41:03;8.23;;;2.73;;
71238;SDS011;61342;51.442;7.370;2023-04-03T04:42:04;5.67;;;2.90;;
71238;SDS011;61342;51.442;7.370;2023-04-03T04:43:04;6.63;;;2.47;;
71238;SDS011;61342;51.442;7.370;2023-04-03T04:44:05;5.97;;;2.67;;
71238;SDS011;61342;51.442;7.370;2023-04-03T04:45:05;6.00;;;2.70;;
71238;SDS011;61342;51.442;7.370;2023-04-03T04:46:08;5.75;;;2.70;;
71238;SDS011;61342;51.442;7.370;2023-04-03T04:47:12;6.70;;;2.97;;
71238;SDS011;61342;51.442;7.370;2023-04-03T04:48:12;4.80;;;2.70;;
71238;SDS011;61342;51.442;7.370;2023-04-03T04:49:12;4.83;;;2.77;;
71238;SDS011;61342;51.442;7.370;2023-04-03T04:50:13;3.87;;;2.40;;
71238;SDS011;61342;51.442;7.370;2023-04-03T04:51:13;7.47;;;2.83;;
71238;SDS011;61342;51.442;7.370;2023-04-03T04:52:15;9.38;;;2.78;;
71238;SDS011;61342;51.442;7.370;2023-04-03T04:53:15;5.67;;;3.00;;
71238;SDS011;61342;51.442;7.370;2023-04-03T04:54:15;9.90;;;3.27;;
71238;SDS011;61342;51.442;7.370;2023-04-03T04:55:16;6.97;;;3.17;;
71238;SDS011;61342;51.442;7.370;2023-04-03T04:56:16;3.10;;;2.47;;
71238;SDS011;61342;51.442;7.370;2023-04-03T04:57:17;5.37;;;2.60;;
71238;SDS011;61342;51.442;7.370;2023-04-03T04:58:17;5.87;;;2.63;;
71238;SDS011;61342;51.442;7.370;2023-04-03T04:59:17;7.20;;;2.57;;
71238;SDS011;61342;51.442;7.370;2023-04-03T05:00:18;7.53;;;3.17;;
71238;SDS011;61342;51.442;7.370;2023-04-03T05:01:18;4.63;;;2.80;;
71238;SDS011;61342;51.442;7.370;2023-04-03T05:02:19;6.23;;;2.90;;
71238;SDS011;61342;51.442;7.370;2023-04-03T05:03:19;4.13;;;2.60;;
71238;SDS011;61342;51.442;7.370;2023-04-03T05:04:19;6.77;;;3.13;;
71238;SDS011;61342;51.442;7.370;2023-04-03T05:05:20;6.27;;;3.07;;
71238;SDS011;61342;51.442;7.370;2023-04-03T05:06:20;6.53;;;3.30;;
71238;SDS011;61342;51.442;7.370;2023-04-03T05:07:21;4.77;;;2.73;;
71238;SDS011;61342;51.442;7.370;2023-04-03T05:08:21;5.93;;;2.83;;
71238;SDS011;61342;51.442;7.370;2023-04-03T05:09:22;5.57;;;3.00;;
71238;SDS011;61342;51.442;7.370;2023-04-03T05:10:22;7.07;;;2.93;;
71238;SDS011;61342;51.442;7.370;2023-04-03T05:11:23;5.67;;;2.70;;
71238;SDS011;61342;51.442;7.370;2023-04-03T05:12:23;6.10;;;3.07;;
71238;SDS011;61342;51.442;7.370;2023-04-03T05:13:24;7.37;;;3.30;;
71238;SDS011;61342;51.442;7.370;2023-04-03T05:14:25;4.90;;;2.90;;
71238;SDS011;61342;51.442;7.370;2023-04-03T05:15:25;4.50;;;3.00;;
71238;SDS011;61342;51.442;7.370;2023-04-03T05:16:26;6.77;;;2.63;;
71238;SDS011;61342;51.442;7.370;2023-04-03T05:17:26;4.80;;;2.40;;
71238;SDS011;61342;51.442;7.370;2023-04-03T05:18:26;4.97;;;2.80;;
71238;SDS011;61342;51.442;7.370;2023-04-03T05:19:27;6.90;;;2.97;;
71238;SDS011;61342;51.442;7.370;2023-04-03T05:20:27;7.67;;;2.87;;
71238;SDS011;61342;51.442;7.370;2023-04-03T05:21:27;5.97;;;3.00;;
71238;SDS011;61342;51.442;7.370;2023-04-03T05:22:32;6.22;;;2.83;;
71238;SDS011;61342;51.442;7.370;2023-04-03T05:23:32;5.47;;;3.30;;
71238;SDS011;61342;51.442;7.370;2023-04-03T05:24:33;5.47;;;3.07;;
71238;SDS011;61342;51.442;7.370;2023-04-03T05:25:33;5.30;;;3.67;;
71238;SDS011;61342;51.442;7.370;2023-04-03T05:26:33;6.13;;;3.10;;
71238;SDS011;61342;51.442;7.370;2023-04-03T05:27:34;10.40;;;3.30;;
71238;SDS011;61342;51.442;7.370;2023-04-03T05:28:34;6.03;;;2.90;;
71238;SDS011;61342;51.442;7.370;2023-04-03T05:29:35;7.53;;;3.10;;
71238;SDS011;61342;51.442;7.370;2023-04-03T05:30:35;4.77;;;3.10;;
71238;SDS011;61342;51.442;7.370;2023-04-03T05:31:36;7.13;;;2.97;;
71238;SDS011;61342;51.442;7.370;2023-04-03T05:32:36;8.17;;;3.17;;
71238;SDS011;61342;51.442;7.370;2023-04-03T05:33:36;6.27;;;2.97;;
71238;SDS011;61342;51.442;7.370;2023-04-03T05:34:37;5.20;;;3.00;;
71238;SDS011;61342;51.442;7.370;2023-04-03T05:35:37;5.30;;;3.00;;
71238;SDS011;61342;51.442;7.370;2023-04-03T05:36:41;6.03;;;3.13;;
71238;SDS011;61342;51.442;7.370;2023-04-03T05:37:42;6.43;;;2.90;;
71238;SDS011;61342;51.442;7.370;2023-04-03T05:38:42;6.00;;;2.57;;
71238;SDS011;61342;51.442;7.370;2023-04-03T05:39:42;4.20;;;2.87;;
71238;SDS011;61342;51.442;7.370;2023-04-03T05:40:43;7.57;;;3.37;;
71238;SDS011;61342;51.442;7.370;2023-04-03T05:41:44;6.90;;;3.27;;
71238;SDS011;61342;51.442;7.370;2023-04-03T05:42:44;5.10;;;3.30;;
71238;SDS011;61342;51.442;7.370;2023-04-03T05:43:45;7.13;;;2.93;;
71238;SDS011;61342;51.442;7.370;2023-04-03T05:44:45;8.63;;;3.00;;
71238;SDS011;61342;51.442;7.370;2023-04-03T05:45:47;7.30;;;3.22;;
71238;SDS011;61342;51.442;7.370;2023-04-03T05:46:47;6.73;;;2.90;;
71238;SDS011;61342;51.442;7.370;2023-04-03T05:47:48;6.33;;;3.13;;
71238;SDS011;61342;51.442;7.370;2023-04-03T05:48:49;9.60;;;3.33;;
71238;SDS011;61342;51.442;7.370;2023-04-03T05:49:49;7.20;;;3.20;;
71238;SDS011;61342;51.442;7.370;2023-04-03T05:50:50;7.83;;;3.30;;
71238;SDS011;61342;51.442;7.370;2023-04-03T05:51:50;6.23;;;3.00;;
71238;SDS011;61342;51.442;7.370;2023-04-03T05:52:52;4.95;;;2.80;;
71238;SDS011;61342;51.442;7.370;2023-04-03T05:54:00;10.10;;;3.63;;
71238;SDS011;61342;51.442;7.370;2023-04-03T05:55:07;8.10;;;3.05;;
71238;SDS011;61342;51.442;7.370;2023-04-03T05:56:08;9.00;;;3.07;;
71238;SDS011;61342;51.442;7.370;2023-04-03T05:57:08;5.73;;;3.00;;
71238;SDS011;61342;51.442;7.370;2023-04-03T05:58:08;7.90;;;3.00;;
71238;SDS011;61342;51.442;7.370;2023-04-03T05:59:09;5.30;;;2.73;;
71238;SDS011;61342;51.442;7.370;2023-04-03T06:00:12;6.07;;;3.13;;
71238;SDS011;61342;51.442;7.370;2023-04-03T06:01:15;6.32;;;3.20;;
71238;SDS011;61342;51.442;7.370;2023-04-03T06:02:17;5.70;;;3.10;;
71238;SDS011;61342;51.442;7.370;2023-04-03T06:03:19;6.43;;;2.85;;
71238;SDS011;61342;51.442;7.370;2023-04-03T06:04:19;7.00;;;3.23;;
71238;SDS011;61342;51.442;7.370;2023-04-03T06:05:21;6.82;;;2.80;;
71238;SDS011;61342;51.442;7.370;2023-04-03T06:06:21;8.30;;;3.23;;
71238;SDS011;61342;51.442;7.370;2023-04-03T06:07:23;4.97;;;2.87;;
71238;SDS011;61342;51.442;7.370;2023-04-03T06:08:27;7.45;;;3.25;;
71238;SDS011;61342;51.442;7.370;2023-04-03T06:09:27;7.20;;;3.03;;
71238;SDS011;61342;51.442;7.370;2023-04-03T06:10:31;6.38;;;2.70;;
71238;SDS011;61342;51.442;7.370;2023-04-03T06:11:31;7.57;;;2.80;;